Portada
METAR-TAF:

METAR-TAF

Aeropuertos :

Longyearbyen, Noruega

Aeropuerto de Svalbard

latitud: 78-15N, longitud: 015-28E, altitud: 2 m

Observación

El informe se hizo hace 11 minutos, a las 09:50 UTC
Viento 2 kt con dirección variable
Temperatura -2°C
Humedad 63%
Presión 1040 hPa
Visibilidad 10 km o más
Nubes dispersas a una altura de 4300 ft

METAR: ENSB 240950Z VRB02KT 9999 SCT043 M02/M08 Q1040 RMK WIND 1400FT 19008KT

Hora: 11:01 (10:01 UTC)

Pronóstico

Pronóstico válido del 24 a las 06 UTC al 25 a las 06 UTC
Viento 15 kt del sur-sureste
Visibilidad 10 km o más
Escasas nubes a una altura de 1500 ft
Nubes dispersas a una altura de 4000 ft

TAF: ENSB 2406/2506 15015KT 9999 FEW015 SCT040

Observaciones y pronósticos meteorológicos de más de 4000 aeropuertos (mensajes METAR y TAF).

Los puntos amarillos y rojos representan las estaciones disponibles.

Ponga el ratón en el punto deseado para ver el nombre de la estación.

Haga clic para ver las observaciones y los pronósticos meteorológicos.

Para cambiar el mapa : haga clic en los botones verdes con una cruz de color negro para hacer un zoom, en el botón verde con un guión para alejar o en las flechas verdes para mapas adyacentes.


METAR-TAF: